sensor_id;sensor_type;location;lat;lon;timestamp;P1;durP1;ratioP1;P2;durP2;ratioP2
7017;SDS011;3549;42.162;24.726;2023-04-29T00:01:06;17.07;;;10.10;;
7017;SDS011;3549;42.162;24.726;2023-04-29T00:03:31;16.23;;;10.03;;
7017;SDS011;3549;42.162;24.726;2023-04-29T00:05:57;15.33;;;10.43;;
7017;SDS011;3549;42.162;24.726;2023-04-29T00:08:23;18.53;;;10.57;;
7017;SDS011;3549;42.162;24.726;2023-04-29T00:10:48;18.57;;;11.23;;
7017;SDS011;3549;42.162;24.726;2023-04-29T00:13:14;18.67;;;11.70;;
7017;SDS011;3549;42.162;24.726;2023-04-29T00:15:40;19.60;;;11.63;;
7017;SDS011;3549;42.162;24.726;2023-04-29T00:18:06;19.67;;;11.53;;
7017;SDS011;3549;42.162;24.726;2023-04-29T00:20:33;18.70;;;11.20;;
7017;SDS011;3549;42.162;24.726;2023-04-29T00:22:59;18.07;;;11.60;;
7017;SDS011;3549;42.162;24.726;2023-04-29T00:25:24;22.30;;;13.00;;
7017;SDS011;3549;42.162;24.726;2023-04-29T00:27:50;20.87;;;12.00;;
7017;SDS011;3549;42.162;24.726;2023-04-29T00:30:15;17.60;;;11.70;;
7017;SDS011;3549;42.162;24.726;2023-04-29T00:32:41;22.43;;;12.40;;
7017;SDS011;3549;42.162;24.726;2023-04-29T00:35:07;19.00;;;11.27;;
7017;SDS011;3549;42.162;24.726;2023-04-29T00:37:33;19.47;;;12.67;;
7017;SDS011;3549;42.162;24.726;2023-04-29T00:39:59;18.93;;;11.77;;
7017;SDS011;3549;42.162;24.726;2023-04-29T00:42:24;21.43;;;12.23;;
7017;SDS011;3549;42.162;24.726;2023-04-29T00:44:50;19.17;;;11.60;;
7017;SDS011;3549;42.162;24.726;2023-04-29T00:47:15;19.93;;;12.20;;
7017;SDS011;3549;42.162;24.726;2023-04-29T00:49:41;18.90;;;11.57;;
7017;SDS011;3549;42.162;24.726;2023-04-29T00:52:07;19.07;;;11.57;;
7017;SDS011;3549;42.162;24.726;2023-04-29T00:54:36;18.50;;;12.00;;
7017;SDS011;3549;42.162;24.726;2023-04-29T00:57:03;19.53;;;12.23;;
7017;SDS011;3549;42.162;24.726;2023-04-29T00:59:30;21.93;;;12.10;;
7017;SDS011;3549;42.162;24.726;2023-04-29T01:02:00;18.67;;;11.97;;
7017;SDS011;3549;42.162;24.726;2023-04-29T01:04:28;19.70;;;12.10;;
7017;SDS011;3549;42.162;24.726;2023-04-29T01:15:02;20.67;;;12.30;;
7017;SDS011;3549;42.162;24.726;2023-04-29T01:17:49;21.50;;;13.03;;
7017;SDS011;3549;42.162;24.726;2023-04-29T01:20:19;22.70;;;13.47;;
7017;SDS011;3549;42.162;24.726;2023-04-29T01:22:48;24.63;;;12.93;;
7017;SDS011;3549;42.162;24.726;2023-04-29T01:25:13;22.70;;;12.97;;
7017;SDS011;3549;42.162;24.726;2023-04-29T01:27:48;25.50;;;13.37;;
7017;SDS011;3549;42.162;24.726;2023-04-29T01:35:37;21.17;;;13.13;;
7017;SDS011;3549;42.162;24.726;2023-04-29T01:38:16;23.77;;;12.67;;
7017;SDS011;3549;42.162;24.726;2023-04-29T01:43:39;23.57;;;11.87;;
7017;SDS011;3549;42.162;24.726;2023-04-29T01:46:05;23.63;;;12.90;;
7017;SDS011;3549;42.162;24.726;2023-04-29T01:48:34;21.50;;;12.53;;
7017;SDS011;3549;42.162;24.726;2023-04-29T01:51:00;20.40;;;12.00;;
7017;SDS011;3549;42.162;24.726;2023-04-29T01:53:26;22.87;;;11.87;;
7017;SDS011;3549;42.162;24.726;2023-04-29T01:55:51;21.60;;;12.47;;
7017;SDS011;3549;42.162;24.726;2023-04-29T01:58:17;20.10;;;12.23;;
7017;SDS011;3549;42.162;24.726;2023-04-29T02:00:42;20.67;;;12.10;;
7017;SDS011;3549;42.162;24.726;2023-04-29T02:03:08;24.00;;;11.63;;
7017;SDS011;3549;42.162;24.726;2023-04-29T02:05:33;21.07;;;11.73;;
7017;SDS011;3549;42.162;24.726;2023-04-29T02:07:59;20.33;;;11.87;;
7017;SDS011;3549;42.162;24.726;2023-04-29T02:10:26;19.50;;;11.77;;
7017;SDS011;3549;42.162;24.726;2023-04-29T02:12:52;18.53;;;11.63;;
7017;SDS011;3549;42.162;24.726;2023-04-29T02:15:18;19.27;;;11.17;;
7017;SDS011;3549;42.162;24.726;2023-04-29T02:17:43;19.23;;;11.57;;
7017;SDS011;3549;42.162;24.726;2023-04-29T02:20:09;20.83;;;11.97;;
7017;SDS011;3549;42.162;24.726;2023-04-29T02:22:35;19.63;;;11.63;;
7017;SDS011;3549;42.162;24.726;2023-04-29T02:25:00;19.33;;;12.00;;
7017;SDS011;3549;42.162;24.726;2023-04-29T02:27:26;20.07;;;11.27;;
7017;SDS011;3549;42.162;24.726;2023-04-29T02:29:51;22.47;;;10.90;;
7017;SDS011;3549;42.162;24.726;2023-04-29T02:32:17;18.90;;;10.80;;
7017;SDS011;3549;42.162;24.726;2023-04-29T02:34:44;20.43;;;11.70;;
7017;SDS011;3549;42.162;24.726;2023-04-29T02:37:10;20.37;;;11.43;;
7017;SDS011;3549;42.162;24.726;2023-04-29T02:39:35;19.57;;;11.53;;
7017;SDS011;3549;42.162;24.726;2023-04-29T02:42:01;21.83;;;11.83;;
7017;SDS011;3549;42.162;24.726;2023-04-29T02:44:27;19.60;;;11.80;;
7017;SDS011;3549;42.162;24.726;2023-04-29T02:46:52;19.13;;;11.70;;
7017;SDS011;3549;42.162;24.726;2023-04-29T02:49:18;20.30;;;12.27;;
7017;SDS011;3549;42.162;24.726;2023-04-29T02:51:43;20.97;;;12.23;;
7017;SDS011;3549;42.162;24.726;2023-04-29T02:54:08;24.93;;;11.80;;
7017;SDS011;3549;42.162;24.726;2023-04-29T02:56:35;19.93;;;12.13;;
7017;SDS011;3549;42.162;24.726;2023-04-29T02:59:01;21.93;;;12.23;;
7017;SDS011;3549;42.162;24.726;2023-04-29T03:01:26;20.63;;;12.37;;
7017;SDS011;3549;42.162;24.726;2023-04-29T03:03:52;21.33;;;11.93;;
7017;SDS011;3549;42.162;24.726;2023-04-29T03:06:18;20.83;;;12.43;;
7017;SDS011;3549;42.162;24.726;2023-04-29T03:08:44;22.13;;;12.77;;
7017;SDS011;3549;42.162;24.726;2023-04-29T03:11:10;23.40;;;13.47;;
7017;SDS011;3549;42.162;24.726;2023-04-29T03:13:36;24.40;;;14.03;;
7017;SDS011;3549;42.162;24.726;2023-04-29T03:16:02;24.37;;;14.20;;
7017;SDS011;3549;42.162;24.726;2023-04-29T03:18:28;24.37;;;13.77;;
7017;SDS011;3549;42.162;24.726;2023-04-29T03:20:53;26.03;;;14.80;;
7017;SDS011;3549;42.162;24.726;2023-04-29T03:23:18;26.00;;;14.23;;
7017;SDS011;3549;42.162;24.726;2023-04-29T03:25:44;26.97;;;14.77;;
7017;SDS011;3549;42.162;24.726;2023-04-29T03:28:09;23.60;;;13.53;;
7017;SDS011;3549;42.162;24.726;2023-04-29T03:30:34;22.60;;;13.57;;
7017;SDS011;3549;42.162;24.726;2023-04-29T03:33:00;27.03;;;14.50;;
7017;SDS011;3549;42.162;24.726;2023-04-29T03:35:26;25.10;;;13.47;;
7017;SDS011;3549;42.162;24.726;2023-04-29T03:37:51;26.23;;;14.57;;
7017;SDS011;3549;42.162;24.726;2023-04-29T03:40:17;24.90;;;13.90;;
7017;SDS011;3549;42.162;24.726;2023-04-29T03:42:43;24.60;;;13.90;;
7017;SDS011;3549;42.162;24.726;2023-04-29T03:45:08;24.57;;;13.27;;
7017;SDS011;3549;42.162;24.726;2023-04-29T03:47:37;28.77;;;15.87;;
7017;SDS011;3549;42.162;24.726;2023-04-29T03:50:02;27.07;;;14.47;;
7017;SDS011;3549;42.162;24.726;2023-04-29T03:52:28;26.97;;;14.90;;
7017;SDS011;3549;42.162;24.726;2023-04-29T03:54:53;28.77;;;15.73;;
7017;SDS011;3549;42.162;24.726;2023-04-29T03:57:19;28.37;;;15.33;;
7017;SDS011;3549;42.162;24.726;2023-04-29T03:59:44;28.83;;;15.23;;
7017;SDS011;3549;42.162;24.726;2023-04-29T04:02:14;27.03;;;15.13;;
7017;SDS011;3549;42.162;24.726;2023-04-29T04:04:39;25.07;;;14.47;;
7017;SDS011;3549;42.162;24.726;2023-04-29T04:07:05;27.03;;;14.47;;
7017;SDS011;3549;42.162;24.726;2023-04-29T04:09:30;28.13;;;16.03;;
7017;SDS011;3549;42.162;24.726;2023-04-29T04:11:57;28.00;;;15.67;;
7017;SDS011;3549;42.162;24.726;2023-04-29T04:14:22;27.00;;;15.37;;
7017;SDS011;3549;42.162;24.726;2023-04-29T04:16:48;33.67;;;19.97;;
7017;SDS011;3549;42.162;24.726;2023-04-29T04:19:14;30.70;;;17.50;;
7017;SDS011;3549;42.162;24.726;2023-04-29T04:21:41;39.10;;;23.43;;
7017;SDS011;3549;42.162;24.726;2023-04-29T04:24:07;32.33;;;17.90;;
7017;SDS011;3549;42.162;24.726;2023-04-29T04:26:32;41.87;;;24.57;;
7017;SDS011;3549;42.162;24.726;2023-04-29T04:28:58;76.27;;;31.17;;
7017;SDS011;3549;42.162;24.726;2023-04-29T04:31:23;59.90;;;25.77;;
7017;SDS011;3549;42.162;24.726;2023-04-29T04:33:49;59.10;;;26.50;;
7017;SDS011;3549;42.162;24.726;2023-04-29T04:36:15;41.17;;;21.43;;
7017;SDS011;3549;42.162;24.726;2023-04-29T04:38:40;37.23;;;19.77;;
7017;SDS011;3549;42.162;24.726;2023-04-29T04:41:06;31.57;;;17.00;;
7017;SDS011;3549;42.162;24.726;2023-04-29T04:43:32;35.23;;;19.90;;
7017;SDS011;3549;42.162;24.726;2023-04-29T04:45:57;39.93;;;21.73;;
7017;SDS011;3549;42.162;24.726;2023-04-29T04:48:23;36.07;;;21.93;;
7017;SDS011;3549;42.162;24.726;2023-04-29T04:50:48;32.83;;;19.13;;
7017;SDS011;3549;42.162;24.726;2023-04-29T04:53:13;29.73;;;16.23;;
7017;SDS011;3549;42.162;24.726;2023-04-29T04:55:39;26.87;;;15.90;;
7017;SDS011;3549;42.162;24.726;2023-04-29T04:58:04;23.13;;;14.57;;
7017;SDS011;3549;42.162;24.726;2023-04-29T05:00:30;25.73;;;14.27;;
7017;SDS011;3549;42.162;24.726;2023-04-29T05:02:55;25.27;;;15.03;;
7017;SDS011;3549;42.162;24.726;2023-04-29T05:05:20;19.03;;;11.93;;
7017;SDS011;3549;42.162;24.726;2023-04-29T05:07:46;22.10;;;12.17;;
7017;SDS011;3549;42.162;24.726;2023-04-29T05:10:12;27.90;;;15.70;;
7017;SDS011;3549;42.162;24.726;2023-04-29T05:12:38;31.33;;;18.13;;
7017;SDS011;3549;42.162;24.726;2023-04-29T05:15:03;29.50;;;16.87;;
7017;SDS011;3549;42.162;24.726;2023-04-29T05:17:29;26.30;;;16.73;;
7017;SDS011;3549;42.162;24.726;2023-04-29T05:19:54;23.40;;;14.47;;
7017;SDS011;3549;42.162;24.726;2023-04-29T05:22:20;22.70;;;13.80;;
7017;SDS011;3549;42.162;24.726;2023-04-29T05:24:45;20.93;;;13.27;;
7017;SDS011;3549;42.162;24.726;2023-04-29T05:27:12;22.63;;;12.60;;
7017;SDS011;3549;42.162;24.726;2023-04-29T05:29:38;25.10;;;12.87;;
7017;SDS011;3549;42.162;24.726;2023-04-29T05:32:04;24.53;;;12.20;;
7017;SDS011;3549;42.162;24.726;2023-04-29T05:34:29;21.43;;;12.63;;
7017;SDS011;3549;42.162;24.726;2023-04-29T05:36:55;19.40;;;11.83;;
7017;SDS011;3549;42.162;24.726;2023-04-29T05:39:21;18.20;;;11.17;;
7017;SDS011;3549;42.162;24.726;2023-04-29T05:41:47;17.00;;;11.13;;
7017;SDS011;3549;42.162;24.726;2023-04-29T05:44:12;19.40;;;11.73;;
7017;SDS011;3549;42.162;24.726;2023-04-29T05:46:37;19.07;;;11.97;;
7017;SDS011;3549;42.162;24.726;2023-04-29T05:49:03;18.30;;;11.30;;
7017;SDS011;3549;42.162;24.726;2023-04-29T05:51:29;19.23;;;11.80;;
7017;SDS011;3549;42.162;24.726;2023-04-29T05:53:56;22.37;;;11.73;;
7017;SDS011;3549;42.162;24.726;2023-04-29T05:56:23;20.00;;;12.57;;
7017;SDS011;3549;42.162;24.726;2023-04-29T05:58:48;19.23;;;11.57;;
7017;SDS011;3549;42.162;24.726;2023-04-29T06:01:14;17.17;;;10.60;;
7017;SDS011;3549;42.162;24.726;2023-04-29T06:03:41;15.67;;;10.70;;
7017;SDS011;3549;42.162;24.726;2023-04-29T06:06:07;15.57;;;10.57;;
7017;SDS011;3549;42.162;24.726;2023-04-29T06:08:33;18.00;;;10.73;;
7017;SDS011;3549;42.162;24.726;2023-04-29T06:10:58;16.53;;;11.03;;
7017;SDS011;3549;42.162;24.726;2023-04-29T06:13:24;18.60;;;10.63;;
7017;SDS011;3549;42.162;24.726;2023-04-29T06:15:50;16.40;;;10.50;;
7017;SDS011;3549;42.162;24.726;2023-04-29T06:18:15;15.83;;;10.63;;
7017;SDS011;3549;42.162;24.726;2023-04-29T06:20:41;14.90;;;10.33;;
7017;SDS011;3549;42.162;24.726;2023-04-29T06:23:06;19.40;;;12.30;;
7017;SDS011;3549;42.162;24.726;2023-04-29T06:25:32;18.27;;;11.97;;
7017;SDS011;3549;42.162;24.726;2023-04-29T06:27:58;20.20;;;12.00;;
7017;SDS011;3549;42.162;24.726;2023-04-29T06:30:25;17.20;;;11.67;;
7017;SDS011;3549;42.162;24.726;2023-04-29T06:32:50;17.87;;;12.07;;
7017;SDS011;3549;42.162;24.726;2023-04-29T06:35:16;18.03;;;12.00;;
7017;SDS011;3549;42.162;24.726;2023-04-29T06:37:41;18.50;;;11.53;;
7017;SDS011;3549;42.162;24.726;2023-04-29T06:40:07;17.07;;;10.93;;
7017;SDS011;3549;42.162;24.726;2023-04-29T06:42:32;16.13;;;10.23;;
7017;SDS011;3549;42.162;24.726;2023-04-29T06:44:58;15.80;;;9.10;;
7017;SDS011;3549;42.162;24.726;2023-04-29T06:47:23;14.37;;;9.10;;
7017;SDS011;3549;42.162;24.726;2023-04-29T06:49:49;15.37;;;9.30;;
7017;SDS011;3549;42.162;24.726;2023-04-29T06:52:14;13.53;;;9.50;;
7017;SDS011;3549;42.162;24.726;2023-04-29T06:54:40;13.90;;;8.83;;
7017;SDS011;3549;42.162;24.726;2023-04-29T06:57:06;22.20;;;11.30;;
7017;SDS011;3549;42.162;24.726;2023-04-29T06:59:31;12.80;;;9.00;;
7017;SDS011;3549;42.162;24.726;2023-04-29T07:02:00;14.10;;;9.53;;
7017;SDS011;3549;42.162;24.726;2023-04-29T07:04:25;13.07;;;8.67;;
7017;SDS011;3549;42.162;24.726;2023-04-29T07:06:51;12.43;;;8.07;;
7017;SDS011;3549;42.162;24.726;2023-04-29T07:09:17;20.93;;;11.30;;
7017;SDS011;3549;42.162;24.726;2023-04-29T07:11:43;15.57;;;8.40;;
7017;SDS011;3549;42.162;24.726;2023-04-29T07:14:09;15.33;;;8.53;;
7017;SDS011;3549;42.162;24.726;2023-04-29T07:16:34;16.17;;;10.60;;
7017;SDS011;3549;42.162;24.726;2023-04-29T07:18:59;12.53;;;7.50;;
7017;SDS011;3549;42.162;24.726;2023-04-29T07:21:25;10.50;;;7.60;;
7017;SDS011;3549;42.162;24.726;2023-04-29T07:23:51;12.77;;;8.10;;
7017;SDS011;3549;42.162;24.726;2023-04-29T07:26:16;13.63;;;8.03;;
7017;SDS011;3549;42.162;24.726;2023-04-29T07:28:43;10.13;;;7.47;;
7017;SDS011;3549;42.162;24.726;2023-04-29T07:31:09;12.73;;;7.77;;
7017;SDS011;3549;42.162;24.726;2023-04-29T07:33:36;12.33;;;7.50;;
7017;SDS011;3549;42.162;24.726;2023-04-29T07:36:02;15.97;;;8.83;;
7017;SDS011;3549;42.162;24.726;2023-04-29T07:38:28;18.47;;;8.60;;
7017;SDS011;3549;42.162;24.726;2023-04-29T07:40:54;10.40;;;7.47;;
7017;SDS011;3549;42.162;24.726;2023-04-29T07:43:20;12.03;;;7.60;;
7017;SDS011;3549;42.162;24.726;2023-04-29T07:45:46;13.07;;;7.43;;
7017;SDS011;3549;42.162;24.726;2023-04-29T07:48:12;12.93;;;7.20;;
7017;SDS011;3549;42.162;24.726;2023-04-29T07:50:38;9.73;;;7.47;;
7017;SDS011;3549;42.162;24.726;2023-04-29T07:53:03;11.53;;;7.10;;
7017;SDS011;3549;42.162;24.726;2023-04-29T07:55:29;11.37;;;7.40;;
7017;SDS011;3549;42.162;24.726;2023-04-29T07:57:55;10.07;;;7.30;;
7017;SDS011;3549;42.162;24.726;2023-04-29T08:00:21;11.77;;;7.27;;
7017;SDS011;3549;42.162;24.726;2023-04-29T08:02:53;12.50;;;8.37;;
7017;SDS011;3549;42.162;24.726;2023-04-29T08:05:20;10.27;;;7.23;;
7017;SDS011;3549;42.162;24.726;2023-04-29T08:07:46;11.33;;;6.70;;
7017;SDS011;3549;42.162;24.726;2023-04-29T08:10:13;10.80;;;6.80;;
7017;SDS011;3549;42.162;24.726;2023-04-29T08:12:38;10.57;;;6.87;;
7017;SDS011;3549;42.162;24.726;2023-04-29T08:15:04;9.53;;;7.00;;
7017;SDS011;3549;42.162;24.726;2023-04-29T08:17:30;11.80;;;6.93;;
7017;SDS011;3549;42.162;24.726;2023-04-29T08:19:55;10.20;;;7.10;;
7017;SDS011;3549;42.162;24.726;2023-04-29T08:22:21;11.27;;;7.37;;
7017;SDS011;3549;42.162;24.726;2023-04-29T08:24:47;13.17;;;7.13;;
7017;SDS011;3549;42.162;24.726;2023-04-29T08:27:13;10.83;;;7.77;;
7017;SDS011;3549;42.162;24.726;2023-04-29T08:29:39;10.43;;;7.47;;
7017;SDS011;3549;42.162;24.726;2023-04-29T08:32:07;11.33;;;7.40;;
7017;SDS011;3549;42.162;24.726;2023-04-29T08:34:33;10.93;;;7.17;;
7017;SDS011;3549;42.162;24.726;2023-04-29T08:37:00;9.53;;;7.00;;
7017;SDS011;3549;42.162;24.726;2023-04-29T08:39:30;12.43;;;7.40;;
7017;SDS011;3549;42.162;24.726;2023-04-29T08:41:55;10.30;;;7.27;;
7017;SDS011;3549;42.162;24.726;2023-04-29T08:44:21;12.03;;;8.23;;
7017;SDS011;3549;42.162;24.726;2023-04-29T08:46:47;12.10;;;8.13;;
7017;SDS011;3549;42.162;24.726;2023-04-29T08:49:15;12.57;;;7.80;;
7017;SDS011;3549;42.162;24.726;2023-04-29T08:51:40;14.23;;;9.10;;
7017;SDS011;3549;42.162;24.726;2023-04-29T08:54:05;15.97;;;9.80;;
7017;SDS011;3549;42.162;24.726;2023-04-29T08:56:32;10.87;;;7.77;;
7017;SDS011;3549;42.162;24.726;2023-04-29T08:58:58;10.10;;;7.43;;
7017;SDS011;3549;42.162;24.726;2023-04-29T09:01:28;9.93;;;7.27;;
7017;SDS011;3549;42.162;24.726;2023-04-29T09:06:39;11.97;;;7.47;;
7017;SDS011;3549;42.162;24.726;2023-04-29T09:09:04;10.90;;;7.47;;
7017;SDS011;3549;42.162;24.726;2023-04-29T09:11:30;11.33;;;7.27;;
7017;SDS011;3549;42.162;24.726;2023-04-29T09:14:00;10.03;;;7.23;;
7017;SDS011;3549;42.162;24.726;2023-04-29T09:16:27;11.87;;;7.70;;
7017;SDS011;3549;42.162;24.726;2023-04-29T09:18:53;10.70;;;7.20;;
7017;SDS011;3549;42.162;24.726;2023-04-29T09:21:22;9.87;;;7.43;;
7017;SDS011;3549;42.162;24.726;2023-04-29T09:23:50;16.40;;;9.20;;
7017;SDS011;3549;42.162;24.726;2023-04-29T09:26:17;14.43;;;8.30;;
7017;SDS011;3549;42.162;24.726;2023-04-29T09:28:44;9.83;;;7.23;;
7017;SDS011;3549;42.162;24.726;2023-04-29T09:31:11;12.10;;;6.93;;
7017;SDS011;3549;42.162;24.726;2023-04-29T09:33:51;10.93;;;6.87;;
7017;SDS011;3549;42.162;24.726;2023-04-29T09:36:34;10.30;;;6.70;;
7017;SDS011;3549;42.162;24.726;2023-04-29T09:39:15;12.30;;;6.90;;
7017;SDS011;3549;42.162;24.726;2023-04-29T09:44:25;9.67;;;7.00;;
7017;SDS011;3549;42.162;24.726;2023-04-29T09:49:36;12.10;;;7.70;;
7017;SDS011;3549;42.162;24.726;2023-04-29T09:52:22;11.90;;;6.50;;
7017;SDS011;3549;42.162;24.726;2023-04-29T09:55:04;10.23;;;7.10;;
7017;SDS011;3549;42.162;24.726;2023-04-29T09:57:37;10.63;;;7.20;;
7017;SDS011;3549;42.162;24.726;2023-04-29T10:00:04;10.40;;;6.60;;
7017;SDS011;3549;42.162;24.726;2023-04-29T10:02:30;10.70;;;6.50;;
7017;SDS011;3549;42.162;24.726;2023-04-29T10:04:56;10.13;;;6.50;;
7017;SDS011;3549;42.162;24.726;2023-04-29T10:07:22;13.30;;;6.57;;
7017;SDS011;3549;42.162;24.726;2023-04-29T10:09:50;9.23;;;6.00;;
7017;SDS011;3549;42.162;24.726;2023-04-29T10:12:16;11.23;;;6.50;;
7017;SDS011;3549;42.162;24.726;2023-04-29T10:14:49;9.63;;;6.27;;
7017;SDS011;3549;42.162;24.726;2023-04-29T10:17:28;6.80;;;5.80;;
7017;SDS011;3549;42.162;24.726;2023-04-29T10:20:02;8.73;;;6.37;;
7017;SDS011;3549;42.162;24.726;2023-04-29T10:22:51;8.03;;;5.87;;
7017;SDS011;3549;42.162;24.726;2023-04-29T10:25:19;9.33;;;5.80;;
7017;SDS011;3549;42.162;24.726;2023-04-29T10:27:46;8.97;;;5.97;;
7017;SDS011;3549;42.162;24.726;2023-04-29T10:30:16;8.07;;;6.20;;
7017;SDS011;3549;42.162;24.726;2023-04-29T10:32:43;8.17;;;6.07;;
7017;SDS011;3549;42.162;24.726;2023-04-29T10:35:10;7.90;;;5.67;;
7017;SDS011;3549;42.162;24.726;2023-04-29T10:37:37;10.47;;;5.87;;
7017;SDS011;3549;42.162;24.726;2023-04-29T10:45:28;7.40;;;5.40;;
7017;SDS011;3549;42.162;24.726;2023-04-29T10:50:29;8.63;;;5.77;;
7017;SDS011;3549;42.162;24.726;2023-04-29T10:52:55;11.33;;;5.47;;
7017;SDS011;3549;42.162;24.726;2023-04-29T10:55:22;9.37;;;5.50;;
7017;SDS011;3549;42.162;24.726;2023-04-29T10:57:48;6.83;;;5.07;;
7017;SDS011;3549;42.162;24.726;2023-04-29T11:00:21;9.90;;;5.90;;
7017;SDS011;3549;42.162;24.726;2023-04-29T11:02:52;9.23;;;5.90;;
7017;SDS011;3549;42.162;24.726;2023-04-29T11:05:18;9.83;;;5.17;;
7017;SDS011;3549;42.162;24.726;2023-04-29T11:10:47;8.13;;;5.37;;
7017;SDS011;3549;42.162;24.726;2023-04-29T11:13:23;5.97;;;4.67;;
7017;SDS011;3549;42.162;24.726;2023-04-29T11:16:06;7.57;;;4.70;;
7017;SDS011;3549;42.162;24.726;2023-04-29T11:18:34;6.53;;;4.40;;
7017;SDS011;3549;42.162;24.726;2023-04-29T11:23:28;6.30;;;5.10;;
7017;SDS011;3549;42.162;24.726;2023-04-29T11:25:54;5.90;;;5.03;;
7017;SDS011;3549;42.162;24.726;2023-04-29T11:28:21;7.63;;;5.50;;
7017;SDS011;3549;42.162;24.726;2023-04-29T11:30:49;8.27;;;5.70;;
7017;SDS011;3549;42.162;24.726;2023-04-29T11:33:18;7.33;;;5.50;;
7017;SDS011;3549;42.162;24.726;2023-04-29T11:35:44;7.63;;;5.20;;
7017;SDS011;3549;42.162;24.726;2023-04-29T11:38:11;7.10;;;5.53;;
7017;SDS011;3549;42.162;24.726;2023-04-29T11:40:40;6.55;;;4.70;;
7017;SDS011;3549;42.162;24.726;2023-04-29T11:43:18;7.20;;;4.60;;
7017;SDS011;3549;42.162;24.726;2023-04-29T11:45:44;7.90;;;4.70;;
7017;SDS011;3549;42.162;24.726;2023-04-29T11:48:19;6.90;;;5.22;;
7017;SDS011;3549;42.162;24.726;2023-04-29T11:50:45;9.40;;;6.07;;
7017;SDS011;3549;42.162;24.726;2023-04-29T11:53:12;8.82;;;5.25;;
7017;SDS011;3549;42.162;24.726;2023-04-29T11:55:40;7.20;;;5.13;;
7017;SDS011;3549;42.162;24.726;2023-04-29T11:58:07;7.15;;;5.10;;
7017;SDS011;3549;42.162;24.726;2023-04-29T12:00:33;9.27;;;5.40;;
7017;SDS011;3549;42.162;24.726;2023-04-29T12:02:59;8.93;;;4.70;;
7017;SDS011;3549;42.162;24.726;2023-04-29T12:05:25;6.63;;;4.30;;
7017;SDS011;3549;42.162;24.726;2023-04-29T12:07:50;9.75;;;4.80;;
7017;SDS011;3549;42.162;24.726;2023-04-29T12:10:16;6.50;;;4.20;;
7017;SDS011;3549;42.162;24.726;2023-04-29T12:12:41;7.22;;;4.80;;
7017;SDS011;3549;42.162;24.726;2023-04-29T12:15:10;5.70;;;4.30;;
7017;SDS011;3549;42.162;24.726;2023-04-29T12:17:37;7.10;;;4.53;;
7017;SDS011;3549;42.162;24.726;2023-04-29T12:20:04;7.88;;;4.25;;
7017;SDS011;3549;42.162;24.726;2023-04-29T12:22:31;5.35;;;3.70;;
7017;SDS011;3549;42.162;24.726;2023-04-29T12:24:56;7.45;;;4.88;;
7017;SDS011;3549;42.162;24.726;2023-04-29T12:27:22;6.85;;;4.72;;
7017;SDS011;3549;42.162;24.726;2023-04-29T12:29:48;5.73;;;4.00;;
7017;SDS011;3549;42.162;24.726;2023-04-29T12:32:17;7.47;;;4.57;;
7017;SDS011;3549;42.162;24.726;2023-04-29T12:34:46;9.60;;;5.10;;
7017;SDS011;3549;42.162;24.726;2023-04-29T12:37:12;6.20;;;4.72;;
7017;SDS011;3549;42.162;24.726;2023-04-29T12:39:37;8.10;;;4.53;;
7017;SDS011;3549;42.162;24.726;2023-04-29T12:42:03;7.25;;;5.28;;
7017;SDS011;3549;42.162;24.726;2023-04-29T12:44:34;9.40;;;5.28;;
7017;SDS011;3549;42.162;24.726;2023-04-29T12:47:07;6.18;;;4.40;;
7017;SDS011;3549;42.162;24.726;2023-04-29T12:49:35;9.00;;;4.22;;
7017;SDS011;3549;42.162;24.726;2023-04-29T12:52:02;7.35;;;4.75;;
7017;SDS011;3549;42.162;24.726;2023-04-29T12:54:28;6.82;;;3.95;;
7017;SDS011;3549;42.162;24.726;2023-04-29T12:56:54;6.70;;;4.07;;
7017;SDS011;3549;42.162;24.726;2023-04-29T12:59:19;5.57;;;4.18;;
7017;SDS011;3549;42.162;24.726;2023-04-29T13:01:45;6.97;;;4.22;;
7017;SDS011;3549;42.162;24.726;2023-04-29T13:04:10;8.02;;;4.07;;
7017;SDS011;3549;42.162;24.726;2023-04-29T13:06:36;5.18;;;3.75;;
7017;SDS011;3549;42.162;24.726;2023-04-29T13:09:06;7.30;;;4.20;;
7017;SDS011;3549;42.162;24.726;2023-04-29T13:11:36;6.38;;;4.07;;
7017;SDS011;3549;42.162;24.726;2023-04-29T13:14:02;4.53;;;4.00;;
7017;SDS011;3549;42.162;24.726;2023-04-29T13:16:27;6.80;;;4.20;;
7017;SDS011;3549;42.162;24.726;2023-04-29T13:18:53;7.28;;;4.30;;
7017;SDS011;3549;42.162;24.726;2023-04-29T13:21:19;6.72;;;4.32;;
7017;SDS011;3549;42.162;24.726;2023-04-29T13:23:44;9.18;;;4.90;;
7017;SDS011;3549;42.162;24.726;2023-04-29T13:26:10;6.10;;;4.88;;
7017;SDS011;3549;42.162;24.726;2023-04-29T13:28:36;7.00;;;4.90;;
7017;SDS011;3549;42.162;24.726;2023-04-29T13:31:01;6.57;;;4.63;;
7017;SDS011;3549;42.162;24.726;2023-04-29T13:33:27;8.13;;;5.05;;
7017;SDS011;3549;42.162;24.726;2023-04-29T13:35:52;7.47;;;5.30;;
7017;SDS011;3549;42.162;24.726;2023-04-29T13:38:17;6.28;;;4.70;;
7017;SDS011;3549;42.162;24.726;2023-04-29T13:40:43;7.97;;;5.03;;
7017;SDS011;3549;42.162;24.726;2023-04-29T13:43:08;9.90;;;5.25;;
7017;SDS011;3549;42.162;24.726;2023-04-29T13:45:33;12.07;;;5.40;;
7017;SDS011;3549;42.162;24.726;2023-04-29T13:48:02;6.93;;;5.07;;
7017;SDS011;3549;42.162;24.726;2023-04-29T13:50:28;9.30;;;5.07;;
7017;SDS011;3549;42.162;24.726;2023-04-29T13:52:53;7.78;;;5.00;;
7017;SDS011;3549;42.162;24.726;2023-04-29T13:55:20;8.53;;;4.97;;
7017;SDS011;3549;42.162;24.726;2023-04-29T13:57:46;13.15;;;5.00;;
7017;SDS011;3549;42.162;24.726;2023-04-29T14:00:11;7.53;;;4.80;;
7017;SDS011;3549;42.162;24.726;2023-04-29T14:02:38;7.03;;;4.85;;
7017;SDS011;3549;42.162;24.726;2023-04-29T14:05:04;6.55;;;4.70;;
7017;SDS011;3549;42.162;24.726;2023-04-29T14:07:30;7.65;;;4.43;;
7017;SDS011;3549;42.162;24.726;2023-04-29T14:09:55;7.22;;;5.07;;
7017;SDS011;3549;42.162;24.726;2023-04-29T14:12:20;7.55;;;4.90;;
7017;SDS011;3549;42.162;24.726;2023-04-29T14:14:46;8.13;;;4.88;;
7017;SDS011;3549;42.162;24.726;2023-04-29T14:17:11;8.32;;;4.43;;
7017;SDS011;3549;42.162;24.726;2023-04-29T14:19:37;5.85;;;4.80;;
7017;SDS011;3549;42.162;24.726;2023-04-29T14:22:02;10.77;;;4.82;;
7017;SDS011;3549;42.162;24.726;2023-04-29T14:24:27;7.65;;;4.63;;
7017;SDS011;3549;42.162;24.726;2023-04-29T14:26:53;4.97;;;4.22;;
7017;SDS011;3549;42.162;24.726;2023-04-29T14:29:18;8.00;;;4.60;;
7017;SDS011;3549;42.162;24.726;2023-04-29T14:31:44;6.68;;;4.70;;
7017;SDS011;3549;42.162;24.726;2023-04-29T14:34:09;5.90;;;4.40;;
7017;SDS011;3549;42.162;24.726;2023-04-29T14:36:35;6.83;;;4.60;;
7017;SDS011;3549;42.162;24.726;2023-04-29T14:39:00;10.97;;;4.53;;
7017;SDS011;3549;42.162;24.726;2023-04-29T14:41:27;7.73;;;5.00;;
7017;SDS011;3549;42.162;24.726;2023-04-29T14:43:53;9.27;;;4.73;;
7017;SDS011;3549;42.162;24.726;2023-04-29T14:46:19;5.93;;;4.27;;
7017;SDS011;3549;42.162;24.726;2023-04-29T14:48:46;9.03;;;4.40;;
7017;SDS011;3549;42.162;24.726;2023-04-29T14:51:12;8.20;;;4.47;;
7017;SDS011;3549;42.162;24.726;2023-04-29T14:53:37;6.80;;;4.40;;
7017;SDS011;3549;42.162;24.726;2023-04-29T14:56:03;8.63;;;4.67;;
7017;SDS011;3549;42.162;24.726;2023-04-29T14:58:29;7.57;;;4.50;;
7017;SDS011;3549;42.162;24.726;2023-04-29T15:00:54;10.77;;;4.93;;
7017;SDS011;3549;42.162;24.726;2023-04-29T15:03:20;5.93;;;4.20;;
7017;SDS011;3549;42.162;24.726;2023-04-29T15:05:46;6.90;;;4.50;;
7017;SDS011;3549;42.162;24.726;2023-04-29T15:08:11;5.80;;;3.73;;
7017;SDS011;3549;42.162;24.726;2023-04-29T15:10:37;6.80;;;4.43;;
7017;SDS011;3549;42.162;24.726;2023-04-29T15:13:02;7.77;;;4.30;;
7017;SDS011;3549;42.162;24.726;2023-04-29T15:15:28;6.67;;;4.07;;
7017;SDS011;3549;42.162;24.726;2023-04-29T15:17:53;8.37;;;4.47;;
7017;SDS011;3549;42.162;24.726;2023-04-29T15:20:19;6.50;;;3.90;;